Startpagina
METAR-TAF:

METAR-TAF

Vliegvelden :

Albert, Frankrijk

breedte: 49-58-21N, lengte: 002-41-29E, hoogte: 111 m

Actueel weer

Dit bericht is 1 uur en het 12 minuten geleden gemaakt, om 22:30 UTC
Wind 8 kt uit het zuidwesten
Temperatuur 14°C
Vochtigheid 100%
Druk 1018 hPa
Zicht 10 km of meer
geen wolken onder 1500 m en geen cumulonimbus

METAR: LFAQ 192230Z AUTO 23008KT CAVOK 14/14 Q1018

Tijdstip: 01:42 (23:42 UTC)

Verwachting

Dit bericht is 8 uur en het 5 minuten geleden gemaakt, om 15:37 UTC
Verwachting geldig van 19 om 15 UTC tot 19 om 24 UTC
Wind 10 kt uit het westen
Zicht 10 km of meer
Gebroken wolken op 3000 ft
Tijdelijke
van 19 om 15 UTC tot 19 om 18 UTC
Zicht: 2000 m
Gebroken wolken op 800 ft
Gebroken wolken op 2000 ft, Cumulonimbus.
regenbuien
Wijzigt naar
van 19 om 22 UTC tot 19 om 24 UTC
Zicht: 3000 m
nevel

TAF: LFAQ 191537Z 1915/1924 27010KT 9999 BKN030 TEMPO 1915/1918 2000 SHRA BKN008 BKN020CB BECMG 1922/1924 3000 BR

Waarnemingen en weersverwachtingen van meer dan 4000 vliegvelden (METAR en TAF).

De beschikbare stations zijn de gele en rode punten op de kaart.

Ga met uw muis naar het station om de naam te zien.

Klik dan om waarnemingen en weersverwachtingen te zien.

kaart wijzigen: klik op de groene knoppen met een zwart kruis om in te zoomen, op de groene knop met een streepje om uit te zoomen of op de groene pijlen voor aangrenzende kaarten.


METAR-TAF: